sensor_id;sensor_type;location;lat;lon;timestamp;P1;durP1;ratioP1;P2;durP2;ratioP2
78840;SDS011;68191;47.190;27.558;2023-03-01T00:00:27;3.90;;;2.60;;
78840;SDS011;68191;47.190;27.558;2023-03-01T00:02:58;3.40;;;2.20;;
78840;SDS011;68191;47.190;27.558;2023-03-01T00:05:28;2.70;;;2.10;;
78840;SDS011;68191;47.190;27.558;2023-03-01T00:07:58;3.10;;;2.20;;
78840;SDS011;68191;47.190;27.558;2023-03-01T00:10:29;3.20;;;2.20;;
78840;SDS011;68191;47.190;27.558;2023-03-01T00:12:59;3.10;;;2.30;;
78840;SDS011;68191;47.190;27.558;2023-03-01T00:15:32;3.40;;;2.50;;
78840;SDS011;68191;47.190;27.558;2023-03-01T00:18:06;3.30;;;2.20;;
78840;SDS011;68191;47.190;27.558;2023-03-01T00:20:36;3.00;;;2.40;;
78840;SDS011;68191;47.190;27.558;2023-03-01T00:23:07;3.50;;;2.40;;
78840;SDS011;68191;47.190;27.558;2023-03-01T00:25:43;4.00;;;3.00;;
78840;SDS011;68191;47.190;27.558;2023-03-01T00:28:13;3.30;;;2.30;;
78840;SDS011;68191;47.190;27.558;2023-03-01T00:30:44;3.60;;;2.40;;
78840;SDS011;68191;47.190;27.558;2023-03-01T00:33:15;3.40;;;2.40;;
78840;SDS011;68191;47.190;27.558;2023-03-01T00:35:45;2.70;;;2.20;;
78840;SDS011;68191;47.190;27.558;2023-03-01T00:38:16;3.80;;;2.40;;
78840;SDS011;68191;47.190;27.558;2023-03-01T00:40:46;3.30;;;2.60;;
78840;SDS011;68191;47.190;27.558;2023-03-01T00:43:17;4.00;;;2.60;;
78840;SDS011;68191;47.190;27.558;2023-03-01T00:45:47;3.70;;;2.70;;
78840;SDS011;68191;47.190;27.558;2023-03-01T00:48:17;3.80;;;3.00;;
78840;SDS011;68191;47.190;27.558;2023-03-01T00:50:48;3.30;;;2.80;;
78840;SDS011;68191;47.190;27.558;2023-03-01T00:53:18;3.40;;;2.70;;
78840;SDS011;68191;47.190;27.558;2023-03-01T00:55:48;4.10;;;2.60;;
78840;SDS011;68191;47.190;27.558;2023-03-01T00:58:18;3.90;;;3.10;;
78840;SDS011;68191;47.190;27.558;2023-03-01T01:00:49;3.80;;;2.80;;
78840;SDS011;68191;47.190;27.558;2023-03-01T01:03:19;4.00;;;2.60;;
78840;SDS011;68191;47.190;27.558;2023-03-01T01:05:51;4.20;;;2.90;;
78840;SDS011;68191;47.190;27.558;2023-03-01T01:08:22;3.50;;;2.50;;
78840;SDS011;68191;47.190;27.558;2023-03-01T01:10:53;3.80;;;2.90;;
78840;SDS011;68191;47.190;27.558;2023-03-01T01:13:26;4.30;;;2.70;;
78840;SDS011;68191;47.190;27.558;2023-03-01T01:18:28;4.10;;;3.00;;
78840;SDS011;68191;47.190;27.558;2023-03-01T01:21:02;3.40;;;2.80;;
78840;SDS011;68191;47.190;27.558;2023-03-01T01:23:35;3.40;;;2.50;;
78840;SDS011;68191;47.190;27.558;2023-03-01T01:26:07;3.30;;;2.40;;
78840;SDS011;68191;47.190;27.558;2023-03-01T01:28:39;4.20;;;2.60;;
78840;SDS011;68191;47.190;27.558;2023-03-01T01:31:10;4.80;;;2.80;;
78840;SDS011;68191;47.190;27.558;2023-03-01T01:33:40;3.60;;;3.00;;
78840;SDS011;68191;47.190;27.558;2023-03-01T01:36:11;4.10;;;2.90;;
78840;SDS011;68191;47.190;27.558;2023-03-01T01:38:42;5.30;;;3.40;;
78840;SDS011;68191;47.190;27.558;2023-03-01T01:41:12;4.20;;;3.10;;
78840;SDS011;68191;47.190;27.558;2023-03-01T01:43:44;4.50;;;3.40;;
78840;SDS011;68191;47.190;27.558;2023-03-01T01:46:19;4.20;;;2.90;;
78840;SDS011;68191;47.190;27.558;2023-03-01T01:48:57;3.50;;;2.80;;
78840;SDS011;68191;47.190;27.558;2023-03-01T01:51:31;3.40;;;2.80;;
78840;SDS011;68191;47.190;27.558;2023-03-01T01:54:08;3.60;;;2.90;;
78840;SDS011;68191;47.190;27.558;2023-03-01T01:56:44;4.70;;;3.10;;
78840;SDS011;68191;47.190;27.558;2023-03-01T01:59:21;3.90;;;2.50;;
78840;SDS011;68191;47.190;27.558;2023-03-01T02:01:53;4.80;;;3.10;;
78840;SDS011;68191;47.190;27.558;2023-03-01T02:04:26;3.70;;;2.50;;
78840;SDS011;68191;47.190;27.558;2023-03-01T02:06:57;4.50;;;3.10;;
78840;SDS011;68191;47.190;27.558;2023-03-01T02:09:31;3.40;;;2.50;;
78840;SDS011;68191;47.190;27.558;2023-03-01T02:12:02;4.10;;;3.00;;
78840;SDS011;68191;47.190;27.558;2023-03-01T02:14:34;3.20;;;2.50;;
78840;SDS011;68191;47.190;27.558;2023-03-01T02:17:04;4.00;;;2.80;;
78840;SDS011;68191;47.190;27.558;2023-03-01T02:19:38;4.60;;;3.20;;
78840;SDS011;68191;47.190;27.558;2023-03-01T02:22:18;3.60;;;2.60;;
78840;SDS011;68191;47.190;27.558;2023-03-01T02:24:56;4.20;;;2.60;;
78840;SDS011;68191;47.190;27.558;2023-03-01T02:27:38;3.90;;;2.80;;
78840;SDS011;68191;47.190;27.558;2023-03-01T02:30:16;4.80;;;3.20;;
78840;SDS011;68191;47.190;27.558;2023-03-01T02:32:47;4.30;;;3.00;;
78840;SDS011;68191;47.190;27.558;2023-03-01T02:35:19;4.60;;;3.20;;
78840;SDS011;68191;47.190;27.558;2023-03-01T02:37:50;4.20;;;3.10;;
78840;SDS011;68191;47.190;27.558;2023-03-01T02:40:24;4.60;;;3.10;;
78840;SDS011;68191;47.190;27.558;2023-03-01T02:42:57;4.00;;;3.00;;
78840;SDS011;68191;47.190;27.558;2023-03-01T02:45:27;4.20;;;3.10;;
78840;SDS011;68191;47.190;27.558;2023-03-01T02:47:57;4.40;;;3.00;;
78840;SDS011;68191;47.190;27.558;2023-03-01T02:50:39;3.80;;;2.80;;
78840;SDS011;68191;47.190;27.558;2023-03-01T02:53:23;3.40;;;2.70;;
78840;SDS011;68191;47.190;27.558;2023-03-01T02:56:04;4.80;;;3.30;;
78840;SDS011;68191;47.190;27.558;2023-03-01T02:58:40;4.50;;;3.20;;
78840;SDS011;68191;47.190;27.558;2023-03-01T03:01:14;3.80;;;2.90;;
78840;SDS011;68191;47.190;27.558;2023-03-01T03:03:45;4.20;;;3.00;;
78840;SDS011;68191;47.190;27.558;2023-03-01T03:06:15;4.20;;;2.90;;
78840;SDS011;68191;47.190;27.558;2023-03-01T03:08:46;4.20;;;3.10;;
78840;SDS011;68191;47.190;27.558;2023-03-01T03:11:16;4.60;;;3.60;;
78840;SDS011;68191;47.190;27.558;2023-03-01T03:13:47;4.70;;;3.50;;
78840;SDS011;68191;47.190;27.558;2023-03-01T03:16:19;5.30;;;3.70;;
78840;SDS011;68191;47.190;27.558;2023-03-01T03:18:49;3.90;;;3.30;;
78840;SDS011;68191;47.190;27.558;2023-03-01T03:21:20;4.10;;;3.30;;
78840;SDS011;68191;47.190;27.558;2023-03-01T03:23:50;5.10;;;3.60;;
78840;SDS011;68191;47.190;27.558;2023-03-01T03:26:20;4.10;;;3.20;;
78840;SDS011;68191;47.190;27.558;2023-03-01T03:28:50;4.00;;;3.10;;
78840;SDS011;68191;47.190;27.558;2023-03-01T03:31:21;4.10;;;3.20;;
78840;SDS011;68191;47.190;27.558;2023-03-01T03:33:51;5.10;;;3.90;;
78840;SDS011;68191;47.190;27.558;2023-03-01T03:36:22;4.40;;;3.30;;
78840;SDS011;68191;47.190;27.558;2023-03-01T03:38:53;5.40;;;3.90;;
78840;SDS011;68191;47.190;27.558;2023-03-01T03:41:23;4.40;;;3.30;;
78840;SDS011;68191;47.190;27.558;2023-03-01T03:43:53;4.50;;;3.40;;
78840;SDS011;68191;47.190;27.558;2023-03-01T03:46:24;5.40;;;3.60;;
78840;SDS011;68191;47.190;27.558;2023-03-01T03:48:54;5.10;;;3.90;;
78840;SDS011;68191;47.190;27.558;2023-03-01T03:51:25;6.30;;;4.10;;
78840;SDS011;68191;47.190;27.558;2023-03-01T03:53:55;5.20;;;3.80;;
78840;SDS011;68191;47.190;27.558;2023-03-01T03:56:25;5.40;;;3.90;;
78840;SDS011;68191;47.190;27.558;2023-03-01T03:58:56;5.80;;;3.80;;
78840;SDS011;68191;47.190;27.558;2023-03-01T04:01:26;4.90;;;3.90;;
78840;SDS011;68191;47.190;27.558;2023-03-01T04:03:56;5.80;;;3.80;;
78840;SDS011;68191;47.190;27.558;2023-03-01T04:06:31;6.00;;;4.20;;
78840;SDS011;68191;47.190;27.558;2023-03-01T04:09:02;5.10;;;3.80;;
78840;SDS011;68191;47.190;27.558;2023-03-01T04:11:32;5.60;;;4.00;;
78840;SDS011;68191;47.190;27.558;2023-03-01T04:14:02;4.70;;;3.70;;
78840;SDS011;68191;47.190;27.558;2023-03-01T04:16:33;5.20;;;3.90;;
78840;SDS011;68191;47.190;27.558;2023-03-01T04:19:03;5.00;;;3.70;;
78840;SDS011;68191;47.190;27.558;2023-03-01T04:21:33;5.10;;;4.00;;
78840;SDS011;68191;47.190;27.558;2023-03-01T04:24:04;5.30;;;4.30;;
78840;SDS011;68191;47.190;27.558;2023-03-01T04:26:36;5.50;;;4.40;;
78840;SDS011;68191;47.190;27.558;2023-03-01T04:29:06;5.00;;;4.00;;
78840;SDS011;68191;47.190;27.558;2023-03-01T04:31:37;5.20;;;4.00;;
78840;SDS011;68191;47.190;27.558;2023-03-01T04:34:07;5.00;;;4.20;;
78840;SDS011;68191;47.190;27.558;2023-03-01T04:36:37;4.80;;;3.90;;
78840;SDS011;68191;47.190;27.558;2023-03-01T04:39:08;5.80;;;4.50;;
78840;SDS011;68191;47.190;27.558;2023-03-01T04:41:39;5.50;;;3.90;;
78840;SDS011;68191;47.190;27.558;2023-03-01T04:44:11;5.70;;;4.40;;
78840;SDS011;68191;47.190;27.558;2023-03-01T04:46:41;5.10;;;4.20;;
78840;SDS011;68191;47.190;27.558;2023-03-01T04:49:12;7.90;;;5.00;;
78840;SDS011;68191;47.190;27.558;2023-03-01T04:51:42;5.90;;;4.70;;
78840;SDS011;68191;47.190;27.558;2023-03-01T04:54:13;6.50;;;4.20;;
78840;SDS011;68191;47.190;27.558;2023-03-01T04:56:43;5.20;;;4.10;;
78840;SDS011;68191;47.190;27.558;2023-03-01T04:59:13;6.30;;;4.40;;
78840;SDS011;68191;47.190;27.558;2023-03-01T05:01:44;7.00;;;5.00;;
78840;SDS011;68191;47.190;27.558;2023-03-01T05:04:14;6.60;;;4.60;;
78840;SDS011;68191;47.190;27.558;2023-03-01T05:06:45;5.70;;;4.10;;
78840;SDS011;68191;47.190;27.558;2023-03-01T05:09:16;6.70;;;4.50;;
78840;SDS011;68191;47.190;27.558;2023-03-01T05:11:46;6.00;;;4.40;;
78840;SDS011;68191;47.190;27.558;2023-03-01T05:14:18;7.20;;;4.50;;
78840;SDS011;68191;47.190;27.558;2023-03-01T05:16:48;6.50;;;4.90;;
78840;SDS011;68191;47.190;27.558;2023-03-01T05:19:19;6.90;;;4.90;;
78840;SDS011;68191;47.190;27.558;2023-03-01T05:21:49;6.80;;;4.80;;
78840;SDS011;68191;47.190;27.558;2023-03-01T05:24:32;6.60;;;5.10;;
78840;SDS011;68191;47.190;27.558;2023-03-01T05:27:03;6.20;;;4.50;;
78840;SDS011;68191;47.190;27.558;2023-03-01T05:29:34;5.00;;;4.20;;
78840;SDS011;68191;47.190;27.558;2023-03-01T05:32:06;6.50;;;4.90;;
78840;SDS011;68191;47.190;27.558;2023-03-01T05:34:41;7.20;;;4.90;;
78840;SDS011;68191;47.190;27.558;2023-03-01T05:37:13;6.20;;;4.70;;
78840;SDS011;68191;47.190;27.558;2023-03-01T05:39:43;5.50;;;4.20;;
78840;SDS011;68191;47.190;27.558;2023-03-01T05:42:13;6.90;;;4.60;;
78840;SDS011;68191;47.190;27.558;2023-03-01T05:44:44;6.60;;;4.60;;
78840;SDS011;68191;47.190;27.558;2023-03-01T05:47:14;6.10;;;4.50;;
78840;SDS011;68191;47.190;27.558;2023-03-01T05:49:44;6.50;;;4.60;;
78840;SDS011;68191;47.190;27.558;2023-03-01T05:52:16;6.10;;;4.90;;
78840;SDS011;68191;47.190;27.558;2023-03-01T05:54:46;7.00;;;4.60;;
78840;SDS011;68191;47.190;27.558;2023-03-01T05:57:17;6.30;;;4.80;;
78840;SDS011;68191;47.190;27.558;2023-03-01T05:59:47;6.10;;;4.50;;
78840;SDS011;68191;47.190;27.558;2023-03-01T06:02:19;6.80;;;5.40;;
78840;SDS011;68191;47.190;27.558;2023-03-01T06:04:50;7.20;;;5.50;;
78840;SDS011;68191;47.190;27.558;2023-03-01T06:07:20;8.50;;;5.30;;
78840;SDS011;68191;47.190;27.558;2023-03-01T06:09:50;7.30;;;5.20;;
78840;SDS011;68191;47.190;27.558;2023-03-01T06:12:21;6.00;;;4.40;;
78840;SDS011;68191;47.190;27.558;2023-03-01T06:14:51;6.50;;;4.80;;
78840;SDS011;68191;47.190;27.558;2023-03-01T06:17:22;6.60;;;5.10;;
78840;SDS011;68191;47.190;27.558;2023-03-01T06:19:52;6.80;;;5.30;;
78840;SDS011;68191;47.190;27.558;2023-03-01T06:22:22;7.70;;;5.70;;
78840;SDS011;68191;47.190;27.558;2023-03-01T06:24:53;7.20;;;5.20;;
78840;SDS011;68191;47.190;27.558;2023-03-01T06:27:23;7.10;;;5.10;;
78840;SDS011;68191;47.190;27.558;2023-03-01T06:29:53;7.10;;;5.70;;
78840;SDS011;68191;47.190;27.558;2023-03-01T06:32:24;7.90;;;5.60;;
78840;SDS011;68191;47.190;27.558;2023-03-01T06:34:54;8.60;;;5.00;;
78840;SDS011;68191;47.190;27.558;2023-03-01T06:37:25;7.40;;;5.30;;
78840;SDS011;68191;47.190;27.558;2023-03-01T06:39:56;9.50;;;5.70;;
78840;SDS011;68191;47.190;27.558;2023-03-01T06:42:26;6.90;;;4.80;;
78840;SDS011;68191;47.190;27.558;2023-03-01T06:44:56;7.60;;;5.60;;
78840;SDS011;68191;47.190;27.558;2023-03-01T06:47:27;8.40;;;6.10;;
78840;SDS011;68191;47.190;27.558;2023-03-01T06:49:57;9.50;;;6.50;;
78840;SDS011;68191;47.190;27.558;2023-03-01T06:52:27;10.00;;;6.80;;
78840;SDS011;68191;47.190;27.558;2023-03-01T06:54:58;8.80;;;6.40;;
78840;SDS011;68191;47.190;27.558;2023-03-01T06:57:29;9.60;;;6.70;;
78840;SDS011;68191;47.190;27.558;2023-03-01T06:59:59;9.50;;;7.30;;
78840;SDS011;68191;47.190;27.558;2023-03-01T07:02:30;9.70;;;6.70;;
78840;SDS011;68191;47.190;27.558;2023-03-01T07:05:00;10.50;;;7.00;;
78840;SDS011;68191;47.190;27.558;2023-03-01T07:07:31;11.30;;;7.50;;
78840;SDS011;68191;47.190;27.558;2023-03-01T07:10:02;11.00;;;7.40;;
78840;SDS011;68191;47.190;27.558;2023-03-01T07:12:33;10.00;;;7.20;;
78840;SDS011;68191;47.190;27.558;2023-03-01T07:15:04;9.60;;;7.70;;
78840;SDS011;68191;47.190;27.558;2023-03-01T07:17:37;10.70;;;7.60;;
78840;SDS011;68191;47.190;27.558;2023-03-01T07:20:09;9.90;;;6.50;;
78840;SDS011;68191;47.190;27.558;2023-03-01T07:22:41;9.30;;;6.60;;
78840;SDS011;68191;47.190;27.558;2023-03-01T07:25:11;9.80;;;7.20;;
78840;SDS011;68191;47.190;27.558;2023-03-01T07:27:42;10.30;;;7.10;;
78840;SDS011;68191;47.190;27.558;2023-03-01T07:30:17;9.50;;;7.70;;
78840;SDS011;68191;47.190;27.558;2023-03-01T07:32:49;9.40;;;6.90;;
78840;SDS011;68191;47.190;27.558;2023-03-01T07:35:19;8.40;;;7.00;;
78840;SDS011;68191;47.190;27.558;2023-03-01T07:37:50;11.60;;;7.70;;
78840;SDS011;68191;47.190;27.558;2023-03-01T07:40:21;9.30;;;6.50;;
78840;SDS011;68191;47.190;27.558;2023-03-01T07:42:56;9.60;;;6.80;;
78840;SDS011;68191;47.190;27.558;2023-03-01T07:45:28;9.40;;;6.60;;
78840;SDS011;68191;47.190;27.558;2023-03-01T07:47:59;8.70;;;6.00;;
78840;SDS011;68191;47.190;27.558;2023-03-01T07:50:29;8.40;;;6.40;;
78840;SDS011;68191;47.190;27.558;2023-03-01T07:52:59;11.30;;;6.40;;
78840;SDS011;68191;47.190;27.558;2023-03-01T07:55:31;9.10;;;7.20;;
78840;SDS011;68191;47.190;27.558;2023-03-01T07:58:02;9.50;;;7.00;;
78840;SDS011;68191;47.190;27.558;2023-03-01T08:00:33;9.10;;;6.10;;
78840;SDS011;68191;47.190;27.558;2023-03-01T08:03:03;9.90;;;6.50;;
78840;SDS011;68191;47.190;27.558;2023-03-01T08:05:34;9.70;;;6.40;;
78840;SDS011;68191;47.190;27.558;2023-03-01T08:08:05;8.50;;;6.70;;
78840;SDS011;68191;47.190;27.558;2023-03-01T08:10:37;9.10;;;6.80;;
78840;SDS011;68191;47.190;27.558;2023-03-01T08:13:07;8.30;;;6.20;;
78840;SDS011;68191;47.190;27.558;2023-03-01T08:15:38;8.80;;;6.70;;
78840;SDS011;68191;47.190;27.558;2023-03-01T08:18:08;9.30;;;6.40;;
78840;SDS011;68191;47.190;27.558;2023-03-01T08:20:39;9.50;;;6.50;;
78840;SDS011;68191;47.190;27.558;2023-03-01T08:23:09;9.30;;;6.50;;
78840;SDS011;68191;47.190;27.558;2023-03-01T08:25:40;8.00;;;6.20;;
78840;SDS011;68191;47.190;27.558;2023-03-01T08:28:10;7.30;;;5.80;;
78840;SDS011;68191;47.190;27.558;2023-03-01T08:30:41;8.00;;;6.80;;
78840;SDS011;68191;47.190;27.558;2023-03-01T08:33:11;9.00;;;6.60;;
78840;SDS011;68191;47.190;27.558;2023-03-01T08:35:42;8.90;;;6.40;;
78840;SDS011;68191;47.190;27.558;2023-03-01T08:38:12;7.70;;;5.80;;
78840;SDS011;68191;47.190;27.558;2023-03-01T08:40:43;9.50;;;6.90;;
78840;SDS011;68191;47.190;27.558;2023-03-01T08:43:13;8.00;;;6.70;;
78840;SDS011;68191;47.190;27.558;2023-03-01T08:45:44;7.80;;;6.10;;
78840;SDS011;68191;47.190;27.558;2023-03-01T08:48:16;8.00;;;6.10;;
78840;SDS011;68191;47.190;27.558;2023-03-01T08:50:46;7.90;;;5.80;;
78840;SDS011;68191;47.190;27.558;2023-03-01T08:53:17;8.00;;;6.20;;
78840;SDS011;68191;47.190;27.558;2023-03-01T08:55:48;6.60;;;5.50;;
78840;SDS011;68191;47.190;27.558;2023-03-01T08:58:18;7.40;;;5.80;;
78840;SDS011;68191;47.190;27.558;2023-03-01T09:00:49;8.30;;;6.10;;
78840;SDS011;68191;47.190;27.558;2023-03-01T09:03:19;7.50;;;5.30;;
78840;SDS011;68191;47.190;27.558;2023-03-01T09:05:50;6.40;;;5.40;;
78840;SDS011;68191;47.190;27.558;2023-03-01T09:08:21;8.10;;;6.00;;
78840;SDS011;68191;47.190;27.558;2023-03-01T09:10:52;8.30;;;6.20;;
78840;SDS011;68191;47.190;27.558;2023-03-01T09:13:23;9.80;;;5.80;;
78840;SDS011;68191;47.190;27.558;2023-03-01T09:15:59;6.30;;;5.50;;
78840;SDS011;68191;47.190;27.558;2023-03-01T09:18:32;7.40;;;5.20;;
78840;SDS011;68191;47.190;27.558;2023-03-01T09:21:04;9.60;;;5.90;;
78840;SDS011;68191;47.190;27.558;2023-03-01T09:23:36;8.50;;;6.00;;
78840;SDS011;68191;47.190;27.558;2023-03-01T09:26:08;11.30;;;6.50;;
78840;SDS011;68191;47.190;27.558;2023-03-01T09:28:40;8.70;;;6.20;;
78840;SDS011;68191;47.190;27.558;2023-03-01T09:31:11;8.20;;;6.00;;
78840;SDS011;68191;47.190;27.558;2023-03-01T09:33:42;8.30;;;7.10;;
78840;SDS011;68191;47.190;27.558;2023-03-01T09:36:16;7.20;;;5.70;;
78840;SDS011;68191;47.190;27.558;2023-03-01T09:38:48;10.00;;;6.30;;
78840;SDS011;68191;47.190;27.558;2023-03-01T09:41:26;9.90;;;6.40;;
78840;SDS011;68191;47.190;27.558;2023-03-01T09:44:16;8.40;;;6.20;;
78840;SDS011;68191;47.190;27.558;2023-03-01T09:47:01;8.20;;;6.10;;
78840;SDS011;68191;47.190;27.558;2023-03-01T09:49:33;8.90;;;5.80;;
78840;SDS011;68191;47.190;27.558;2023-03-01T09:52:11;7.60;;;5.10;;
78840;SDS011;68191;47.190;27.558;2023-03-01T09:54:53;8.50;;;5.90;;
78840;SDS011;68191;47.190;27.558;2023-03-01T09:57:28;7.60;;;6.40;;
78840;SDS011;68191;47.190;27.558;2023-03-01T10:00:19;6.90;;;5.50;;
78840;SDS011;68191;47.190;27.558;2023-03-01T10:03:06;7.30;;;5.70;;
78840;SDS011;68191;47.190;27.558;2023-03-01T10:05:47;9.30;;;5.90;;
78840;SDS011;68191;47.190;27.558;2023-03-01T10:08:38;9.30;;;7.20;;
78840;SDS011;68191;47.190;27.558;2023-03-01T10:11:19;10.20;;;7.50;;
78840;SDS011;68191;47.190;27.558;2023-03-01T10:13:54;11.90;;;7.90;;
78840;SDS011;68191;47.190;27.558;2023-03-01T10:16:28;10.30;;;7.30;;
78840;SDS011;68191;47.190;27.558;2023-03-01T10:19:09;9.10;;;7.10;;
78840;SDS011;68191;47.190;27.558;2023-03-01T10:21:46;10.00;;;7.20;;
78840;SDS011;68191;47.190;27.558;2023-03-01T10:24:19;11.20;;;6.90;;
78840;SDS011;68191;47.190;27.558;2023-03-01T10:26:53;9.50;;;6.40;;
78840;SDS011;68191;47.190;27.558;2023-03-01T10:29:27;8.20;;;7.00;;
78840;SDS011;68191;47.190;27.558;2023-03-01T10:32:06;7.60;;;6.40;;
78840;SDS011;68191;47.190;27.558;2023-03-01T10:34:38;7.40;;;6.30;;
78840;SDS011;68191;47.190;27.558;2023-03-01T10:37:13;6.90;;;5.90;;
78840;SDS011;68191;47.190;27.558;2023-03-01T10:39:58;9.20;;;6.40;;
78840;SDS011;68191;47.190;27.558;2023-03-01T10:42:36;10.30;;;6.30;;
78840;SDS011;68191;47.190;27.558;2023-03-01T10:45:22;8.40;;;5.80;;
78840;SDS011;68191;47.190;27.558;2023-03-01T10:48:12;8.50;;;5.90;;
78840;SDS011;68191;47.190;27.558;2023-03-01T10:50:44;8.50;;;5.40;;
78840;SDS011;68191;47.190;27.558;2023-03-01T10:53:26;6.90;;;5.30;;
78840;SDS011;68191;47.190;27.558;2023-03-01T10:56:01;7.20;;;5.50;;
78840;SDS011;68191;47.190;27.558;2023-03-01T10:58:34;8.90;;;5.60;;
78840;SDS011;68191;47.190;27.558;2023-03-01T11:01:06;7.60;;;5.50;;
78840;SDS011;68191;47.190;27.558;2023-03-01T11:04:09;6.30;;;5.70;;
78840;SDS011;68191;47.190;27.558;2023-03-01T11:06:41;6.90;;;5.30;;
78840;SDS011;68191;47.190;27.558;2023-03-01T11:09:26;7.90;;;5.70;;
78840;SDS011;68191;47.190;27.558;2023-03-01T11:12:11;9.90;;;5.20;;
78840;SDS011;68191;47.190;27.558;2023-03-01T11:14:48;7.10;;;5.40;;
78840;SDS011;68191;47.190;27.558;2023-03-01T11:17:23;9.00;;;6.20;;
78840;SDS011;68191;47.190;27.558;2023-03-01T11:20:02;6.40;;;5.20;;
78840;SDS011;68191;47.190;27.558;2023-03-01T11:22:53;6.90;;;5.30;;
78840;SDS011;68191;47.190;27.558;2023-03-01T11:25:27;7.10;;;5.90;;
78840;SDS011;68191;47.190;27.558;2023-03-01T11:28:01;6.20;;;4.90;;
78840;SDS011;68191;47.190;27.558;2023-03-01T11:30:36;6.70;;;5.20;;
78840;SDS011;68191;47.190;27.558;2023-03-01T11:33:16;6.60;;;5.50;;
78840;SDS011;68191;47.190;27.558;2023-03-01T11:35:55;7.00;;;5.10;;
78840;SDS011;68191;47.190;27.558;2023-03-01T11:38:32;7.10;;;4.90;;
78840;SDS011;68191;47.190;27.558;2023-03-01T11:43:40;5.80;;;4.70;;
78840;SDS011;68191;47.190;27.558;2023-03-01T11:49:19;7.90;;;5.40;;
78840;SDS011;68191;47.190;27.558;2023-03-01T11:54:52;6.50;;;4.70;;
78840;SDS011;68191;47.190;27.558;2023-03-01T11:57:42;6.60;;;5.00;;
78840;SDS011;68191;47.190;27.558;2023-03-01T12:00:40;6.60;;;5.00;;
78840;SDS011;68191;47.190;27.558;2023-03-01T12:03:32;6.30;;;5.20;;
78840;SDS011;68191;47.190;27.558;2023-03-01T12:06:35;5.90;;;4.80;;
78840;SDS011;68191;47.190;27.558;2023-03-01T12:09:31;6.90;;;5.60;;
78840;SDS011;68191;47.190;27.558;2023-03-01T12:18:06;6.50;;;5.50;;
78840;SDS011;68191;47.190;27.558;2023-03-01T12:20:54;7.80;;;5.40;;
78840;SDS011;68191;47.190;27.558;2023-03-01T12:23:42;6.50;;;5.30;;
78840;SDS011;68191;47.190;27.558;2023-03-01T12:26:37;5.90;;;4.50;;
78840;SDS011;68191;47.190;27.558;2023-03-01T12:29:23;7.20;;;5.10;;
78840;SDS011;68191;47.190;27.558;2023-03-01T12:32:05;7.20;;;5.90;;
78840;SDS011;68191;47.190;27.558;2023-03-01T12:34:59;6.10;;;5.20;;
78840;SDS011;68191;47.190;27.558;2023-03-01T12:37:49;8.60;;;5.50;;
78840;SDS011;68191;47.190;27.558;2023-03-01T12:40:37;7.70;;;6.00;;
78840;SDS011;68191;47.190;27.558;2023-03-01T12:43:33;8.80;;;6.10;;
78840;SDS011;68191;47.190;27.558;2023-03-01T12:46:20;8.30;;;5.70;;
78840;SDS011;68191;47.190;27.558;2023-03-01T12:48:59;7.40;;;5.50;;
78840;SDS011;68191;47.190;27.558;2023-03-01T12:51:37;7.80;;;5.90;;
78840;SDS011;68191;47.190;27.558;2023-03-01T12:54:14;8.10;;;6.10;;
78840;SDS011;68191;47.190;27.558;2023-03-01T12:56:50;9.40;;;5.70;;
78840;SDS011;68191;47.190;27.558;2023-03-01T12:59:22;7.30;;;5.70;;
78840;SDS011;68191;47.190;27.558;2023-03-01T13:02:02;7.00;;;5.50;;
78840;SDS011;68191;47.190;27.558;2023-03-01T13:04:50;7.70;;;5.60;;
78840;SDS011;68191;47.190;27.558;2023-03-01T13:07:41;7.70;;;5.40;;
78840;SDS011;68191;47.190;27.558;2023-03-01T13:10:22;8.70;;;5.80;;
78840;SDS011;68191;47.190;27.558;2023-03-01T13:13:02;9.40;;;6.60;;
78840;SDS011;68191;47.190;27.558;2023-03-01T13:15:42;6.40;;;5.70;;
78840;SDS011;68191;47.190;27.558;2023-03-01T13:21:04;7.50;;;5.50;;
78840;SDS011;68191;47.190;27.558;2023-03-01T13:23:37;9.40;;;5.20;;
78840;SDS011;68191;47.190;27.558;2023-03-01T13:26:15;7.70;;;4.90;;
78840;SDS011;68191;47.190;27.558;2023-03-01T13:28:50;8.10;;;4.60;;
78840;SDS011;68191;47.190;27.558;2023-03-01T13:37:29;7.70;;;4.80;;
78840;SDS011;68191;47.190;27.558;2023-03-01T13:40:03;8.40;;;5.50;;
78840;SDS011;68191;47.190;27.558;2023-03-01T13:42:53;8.30;;;4.60;;
78840;SDS011;68191;47.190;27.558;2023-03-01T13:45:25;6.40;;;4.80;;
78840;SDS011;68191;47.190;27.558;2023-03-01T13:48:11;7.20;;;4.40;;
78840;SDS011;68191;47.190;27.558;2023-03-01T13:50:45;9.10;;;4.60;;
78840;SDS011;68191;47.190;27.558;2023-03-01T13:53:19;6.10;;;4.40;;
78840;SDS011;68191;47.190;27.558;2023-03-01T13:55:51;7.50;;;4.80;;
78840;SDS011;68191;47.190;27.558;2023-03-01T13:58:25;6.10;;;4.30;;
78840;SDS011;68191;47.190;27.558;2023-03-01T14:00:59;5.80;;;4.00;;
78840;SDS011;68191;47.190;27.558;2023-03-01T14:06:01;7.80;;;4.70;;
78840;SDS011;68191;47.190;27.558;2023-03-01T14:08:35;8.20;;;5.40;;
78840;SDS011;68191;47.190;27.558;2023-03-01T14:11:28;10.10;;;6.40;;
78840;SDS011;68191;47.190;27.558;2023-03-01T14:14:26;7.40;;;5.40;;
78840;SDS011;68191;47.190;27.558;2023-03-01T14:17:13;10.20;;;8.00;;
78840;SDS011;68191;47.190;27.558;2023-03-01T14:20:07;9.50;;;6.70;;
78840;SDS011;68191;47.190;27.558;2023-03-01T14:22:41;10.00;;;7.30;;
78840;SDS011;68191;47.190;27.558;2023-03-01T14:25:23;8.50;;;6.70;;
78840;SDS011;68191;47.190;27.558;2023-03-01T14:28:02;10.40;;;7.50;;
78840;SDS011;68191;47.190;27.558;2023-03-01T14:30:43;11.10;;;6.90;;
78840;SDS011;68191;47.190;27.558;2023-03-01T14:33:19;7.60;;;5.70;;
78840;SDS011;68191;47.190;27.558;2023-03-01T14:35:58;6.80;;;5.40;;
78840;SDS011;68191;47.190;27.558;2023-03-01T14:38:34;7.60;;;5.10;;
78840;SDS011;68191;47.190;27.558;2023-03-01T14:41:07;6.20;;;5.00;;
78840;SDS011;68191;47.190;27.558;2023-03-01T14:43:44;5.80;;;4.50;;
78840;SDS011;68191;47.190;27.558;2023-03-01T14:46:18;6.30;;;5.20;;
78840;SDS011;68191;47.190;27.558;2023-03-01T14:48:55;5.30;;;4.30;;
78840;SDS011;68191;47.190;27.558;2023-03-01T14:51:29;5.50;;;4.50;;
78840;SDS011;68191;47.190;27.558;2023-03-01T14:54:03;7.20;;;4.80;;
78840;SDS011;68191;47.190;27.558;2023-03-01T14:56:47;6.10;;;4.70;;
78840;SDS011;68191;47.190;27.558;2023-03-01T14:59:20;6.80;;;4.90;;
78840;SDS011;68191;47.190;27.558;2023-03-01T15:01:53;5.80;;;4.30;;
78840;SDS011;68191;47.190;27.558;2023-03-01T15:04:26;6.60;;;4.80;;
78840;SDS011;68191;47.190;27.558;2023-03-01T15:06:58;6.20;;;4.30;;
78840;SDS011;68191;47.190;27.558;2023-03-01T15:09:34;6.10;;;4.80;;
78840;SDS011;68191;47.190;27.558;2023-03-01T15:15:08;7.50;;;4.30;;
78840;SDS011;68191;47.190;27.558;2023-03-01T15:18:00;6.90;;;4.80;;
78840;SDS011;68191;47.190;27.558;2023-03-01T15:20:33;7.50;;;4.40;;
78840;SDS011;68191;47.190;27.558;2023-03-01T15:23:04;7.20;;;4.50;;
78840;SDS011;68191;47.190;27.558;2023-03-01T15:25:46;5.70;;;4.20;;
78840;SDS011;68191;47.190;27.558;2023-03-01T15:28:24;5.90;;;4.10;;
78840;SDS011;68191;47.190;27.558;2023-03-01T15:33:31;5.30;;;4.10;;
78840;SDS011;68191;47.190;27.558;2023-03-01T15:36:04;4.60;;;3.90;;
78840;SDS011;68191;47.190;27.558;2023-03-01T15:42:06;5.80;;;5.10;;
78840;SDS011;68191;47.190;27.558;2023-03-01T15:44:38;5.90;;;4.90;;
78840;SDS011;68191;47.190;27.558;2023-03-01T15:47:25;5.40;;;4.60;;
78840;SDS011;68191;47.190;27.558;2023-03-01T15:49:58;5.40;;;4.30;;
78840;SDS011;68191;47.190;27.558;2023-03-01T15:52:32;5.40;;;4.30;;